createdAt,value
2018-09-19T00:00:11.981Z,18.50
2018-09-19T00:02:39.341Z,18.50
2018-09-19T00:05:06.067Z,18.50
2018-09-19T00:07:32.893Z,18.50
2018-09-19T00:09:59.714Z,18.40
2018-09-19T00:12:26.383Z,18.40
2018-09-19T00:14:53.289Z,18.40
2018-09-19T00:17:20.036Z,18.40
2018-09-19T00:19:46.868Z,18.40
2018-09-19T00:22:13.769Z,18.40
2018-09-19T00:24:40.493Z,18.40
2018-09-19T00:27:07.187Z,18.30
2018-09-19T00:29:33.993Z,18.30
2018-09-19T00:32:00.666Z,18.30
2018-09-19T00:34:27.379Z,18.30
2018-09-19T00:36:54.202Z,18.30
2018-09-19T00:39:20.925Z,18.30
2018-09-19T00:41:47.609Z,18.30
2018-09-19T00:44:14.460Z,18.30
2018-09-19T00:46:41.261Z,18.20
2018-09-19T00:49:08.099Z,18.20
2018-09-19T00:51:34.788Z,18.20
2018-09-19T00:54:01.433Z,18.20
2018-09-19T00:56:28.204Z,18.20
2018-09-19T00:58:55.001Z,18.20
2018-09-19T01:01:21.688Z,18.20
2018-09-19T01:03:48.848Z,18.10
2018-09-19T01:06:16.142Z,18.10
2018-09-19T01:08:42.760Z,18.10
2018-09-19T01:11:09.422Z,18.10
2018-09-19T01:13:36.092Z,18.00
2018-09-19T01:16:02.908Z,18.10
2018-09-19T01:18:29.601Z,18.00
2018-09-19T01:20:56.365Z,18.00
2018-09-19T01:23:23.033Z,18.00
2018-09-19T01:25:50.502Z,18.00
2018-09-19T01:28:17.245Z,18.00
2018-09-19T01:30:44.038Z,18.00
2018-09-19T01:33:10.709Z,18.00
2018-09-19T01:35:37.465Z,18.00
2018-09-19T01:38:04.164Z,18.00
2018-09-19T01:40:30.897Z,17.90
2018-09-19T01:42:57.561Z,17.90
2018-09-19T01:45:24.398Z,17.90
2018-09-19T01:47:51.098Z,17.90
2018-09-19T01:50:18.022Z,17.90
2018-09-19T01:52:45.074Z,17.90
2018-09-19T01:55:11.939Z,17.90
2018-09-19T01:57:38.606Z,17.80
2018-09-19T02:00:05.241Z,17.80
2018-09-19T02:02:31.903Z,17.80
2018-09-19T02:04:58.823Z,17.80
2018-09-19T02:07:25.502Z,17.80
2018-09-19T02:09:52.167Z,17.80
2018-09-19T02:12:18.813Z,17.80
2018-09-19T02:14:45.626Z,17.80
2018-09-19T02:17:12.353Z,17.70
2018-09-19T02:19:39.193Z,17.80
2018-09-19T02:22:05.909Z,17.70
2018-09-19T02:24:32.557Z,17.70
2018-09-19T02:26:59.364Z,17.70
2018-09-19T02:29:26.202Z,17.70
2018-09-19T02:31:52.882Z,17.70
2018-09-19T02:34:19.638Z,17.30
2018-09-19T02:36:46.315Z,17.70
2018-09-19T02:39:13.078Z,17.70
2018-09-19T02:41:39.784Z,17.70
2018-09-19T02:44:06.505Z,17.60
2018-09-19T02:46:33.207Z,17.60
2018-09-19T02:49:00.498Z,17.60
2018-09-19T02:51:27.630Z,17.60
2018-09-19T02:53:54.388Z,17.60
2018-09-19T02:56:21.166Z,17.50
2018-09-19T02:58:48.076Z,17.50
2018-09-19T03:01:14.866Z,17.50
2018-09-19T03:03:41.509Z,17.50
2018-09-19T03:06:08.831Z,17.50
2018-09-19T03:08:35.602Z,17.50
2018-09-19T03:11:02.308Z,17.50
2018-09-19T03:13:29.141Z,17.50
2018-09-19T03:15:55.784Z,17.40
2018-09-19T03:18:22.885Z,17.40
2018-09-19T03:20:49.569Z,17.40
2018-09-19T03:23:16.309Z,17.40
2018-09-19T03:25:43.078Z,17.40
2018-09-19T03:28:10.134Z,17.40
2018-09-19T03:30:37.981Z,17.40
2018-09-19T03:33:04.742Z,17.40
2018-09-19T03:35:31.808Z,17.40
2018-09-19T03:37:58.595Z,17.40
2018-09-19T03:40:25.505Z,17.40
2018-09-19T03:42:52.963Z,17.40
2018-09-19T03:45:19.778Z,17.30
2018-09-19T03:47:46.434Z,17.30
2018-09-19T03:50:13.161Z,17.30
2018-09-19T03:52:39.957Z,17.30
2018-09-19T03:55:06.725Z,17.30
2018-09-19T03:57:33.418Z,17.30
2018-09-19T04:00:00.070Z,17.30
2018-09-19T04:02:26.746Z,17.30
2018-09-19T04:04:54.193Z,17.20
2018-09-19T04:07:20.968Z,17.30
2018-09-19T04:09:47.692Z,17.30
2018-09-19T04:12:14.597Z,17.30
2018-09-19T04:14:41.281Z,17.30
2018-09-19T04:17:08.041Z,17.30
2018-09-19T04:19:34.864Z,17.30
2018-09-19T04:22:01.622Z,17.30
2018-09-19T04:24:28.332Z,17.30
2018-09-19T04:26:55.085Z,17.30
2018-09-19T04:29:21.739Z,17.30
2018-09-19T04:31:48.498Z,17.30
2018-09-19T04:34:16.662Z,17.30
2018-09-19T04:36:43.715Z,17.30
2018-09-19T04:39:11.778Z,17.30
2018-09-19T04:41:38.496Z,17.30
2018-09-19T04:44:05.922Z,17.30
2018-09-19T04:46:32.635Z,17.30
2018-09-19T04:48:59.337Z,17.30
2018-09-19T04:51:26.120Z,17.30
2018-09-19T04:53:52.777Z,17.30
2018-09-19T04:56:19.543Z,17.30
2018-09-19T04:58:46.554Z,17.30
2018-09-19T05:01:13.295Z,17.30
2018-09-19T05:03:40.490Z,17.30
2018-09-19T05:06:07.189Z,17.30
2018-09-19T05:08:33.876Z,17.30
2018-09-19T05:11:00.583Z,17.30
2018-09-19T05:13:27.519Z,17.30
2018-09-19T05:15:54.369Z,17.30
2018-09-19T05:18:21.257Z,17.30
2018-09-19T05:20:48.173Z,17.30
2018-09-19T05:23:15.005Z,17.30
2018-09-19T05:25:42.909Z,17.30
2018-09-19T05:28:09.702Z,17.30
2018-09-19T05:30:36.490Z,17.30
2018-09-19T05:33:03.203Z,17.30
2018-09-19T05:35:29.986Z,17.30
2018-09-19T05:37:57.817Z,17.30
2018-09-19T05:40:25.284Z,17.30
2018-09-19T05:42:52.097Z,17.30
2018-09-19T05:45:18.804Z,17.30
2018-09-19T05:47:45.502Z,17.30
2018-09-19T06:01:15.591Z,17.30
2018-09-19T06:03:42.459Z,17.30
2018-09-19T06:06:09.268Z,17.30
2018-09-19T06:08:36.134Z,17.30
2018-09-19T06:11:03.605Z,17.30
2018-09-19T06:13:30.425Z,17.30
2018-09-19T06:15:57.182Z,17.30
2018-09-19T06:18:24.356Z,17.30
2018-09-19T06:20:52.119Z,17.30
2018-09-19T06:23:18.988Z,17.30
2018-09-19T06:25:45.869Z,17.30
2018-09-19T06:28:12.745Z,17.30
2018-09-19T06:30:40.538Z,17.30
2018-09-19T06:33:07.604Z,17.30
2018-09-19T06:35:34.912Z,17.60
2018-09-19T06:38:01.738Z,17.30
2018-09-19T06:40:28.822Z,17.30
2018-09-19T06:42:55.614Z,17.40
2018-09-19T06:45:22.433Z,17.40
2018-09-19T06:47:50.034Z,17.40
2018-09-19T06:50:16.858Z,17.30
2018-09-19T06:52:43.891Z,17.40
2018-09-19T06:55:12.274Z,17.20
2018-09-19T06:57:39.178Z,17.40
2018-09-19T07:00:06.127Z,17.40
2018-09-19T07:02:32.988Z,17.50
2018-09-19T07:04:59.906Z,17.50
2018-09-19T07:07:26.735Z,17.50
2018-09-19T07:09:53.716Z,17.50
2018-09-19T07:12:20.642Z,17.50
2018-09-19T07:14:47.500Z,17.60
2018-09-19T07:17:14.323Z,17.60
2018-09-19T07:19:41.141Z,17.60
2018-09-19T07:22:08.037Z,17.70
2018-09-19T07:24:34.805Z,17.70
2018-09-19T07:27:02.205Z,17.70
2018-09-19T07:29:28.938Z,17.80
2018-09-19T07:31:55.894Z,17.80
2018-09-19T07:34:24.001Z,17.90
2018-09-19T07:36:51.491Z,17.90
2018-09-19T07:39:18.251Z,17.90
2018-09-19T07:41:45.143Z,18.00
2018-09-19T07:44:11.890Z,18.00
2018-09-19T07:46:38.689Z,18.10
2018-09-19T07:49:05.369Z,18.10
2018-09-19T07:51:32.370Z,17.90
2018-09-19T07:53:59.091Z,18.20
2018-09-19T07:56:25.885Z,18.30
2018-09-19T07:58:52.681Z,18.30
2018-09-19T08:01:19.512Z,18.40
2018-09-19T08:03:46.250Z,18.40
2018-09-19T08:06:13.126Z,18.40
2018-09-19T08:08:40.820Z,18.50
2018-09-19T08:11:07.558Z,18.50
2018-09-19T08:13:34.892Z,18.60
2018-09-19T08:16:01.824Z,18.60
2018-09-19T08:18:28.578Z,18.70
2018-09-19T08:20:55.413Z,18.80
2018-09-19T08:23:22.212Z,18.80
2018-09-19T08:25:49.133Z,18.90
2018-09-19T08:28:15.883Z,19.00
2018-09-19T08:30:42.733Z,19.00
2018-09-19T08:33:09.467Z,19.10
2018-09-19T08:35:36.237Z,19.10
2018-09-19T08:38:03.628Z,19.20
2018-09-19T08:40:31.134Z,19.30
2018-09-19T08:42:57.879Z,19.30
2018-09-19T08:45:24.637Z,19.40
2018-09-19T08:47:51.379Z,19.50
2018-09-19T08:50:18.091Z,19.50
2018-09-19T08:52:44.864Z,19.50
2018-09-19T08:55:11.604Z,19.60
2018-09-19T08:57:38.434Z,19.30
2018-09-19T09:00:05.274Z,19.70
2018-09-19T09:02:32.049Z,19.70
2018-09-19T09:04:58.904Z,19.80
2018-09-19T09:07:25.864Z,19.80
2018-09-19T09:09:52.600Z,19.90
2018-09-19T09:12:19.939Z,20.00
2018-09-19T09:14:46.899Z,20.00
2018-09-19T09:17:13.779Z,20.00
2018-09-19T09:19:40.710Z,20.10
2018-09-19T09:22:07.759Z,20.10
2018-09-19T09:24:34.765Z,20.20
2018-09-19T09:27:01.967Z,20.30
2018-09-19T09:29:28.764Z,20.30
2018-09-19T09:31:55.769Z,20.30
2018-09-19T09:34:22.750Z,20.40
2018-09-19T09:36:49.842Z,20.40
2018-09-19T09:39:16.952Z,20.50
2018-09-19T09:41:43.800Z,20.50
2018-09-19T09:44:10.552Z,20.60
2018-09-19T09:46:38.292Z,20.70
2018-09-19T09:49:05.117Z,20.70
2018-09-19T09:51:31.975Z,20.80
2018-09-19T09:53:58.707Z,20.80
2018-09-19T09:56:25.604Z,20.90
2018-09-19T09:58:52.579Z,20.60
2018-09-19T10:01:19.729Z,21.00
2018-09-19T10:03:46.937Z,21.10
2018-09-19T10:06:13.868Z,21.10
2018-09-19T10:08:40.751Z,21.20
2018-09-19T10:11:07.640Z,21.00
2018-09-19T10:13:34.500Z,21.20
2018-09-19T10:16:01.828Z,21.50
2018-09-19T10:18:28.667Z,21.30
2018-09-19T10:20:55.390Z,21.30
2018-09-19T10:23:24.332Z,21.10
2018-09-19T10:25:51.155Z,21.50
2018-09-19T10:28:18.449Z,21.40
2018-09-19T10:30:45.372Z,21.60
2018-09-19T10:33:12.240Z,21.60
2018-09-19T10:35:38.934Z,21.60
2018-09-19T10:38:05.710Z,21.70
2018-09-19T10:40:32.510Z,21.70
2018-09-19T10:42:59.466Z,21.80
2018-09-19T10:45:26.536Z,21.80
2018-09-19T10:47:53.609Z,21.90
2018-09-19T10:50:20.324Z,21.90
2018-09-19T10:52:47.538Z,22.00
2018-09-19T10:55:14.465Z,22.00
2018-09-19T10:57:41.298Z,22.00
2018-09-19T11:00:08.121Z,22.10
2018-09-19T11:02:35.545Z,22.10
2018-09-19T11:05:02.447Z,22.20
2018-09-19T11:07:29.289Z,22.20
2018-09-19T11:09:56.002Z,22.30
2018-09-19T11:12:22.692Z,22.30
2018-09-19T11:14:49.380Z,22.30
2018-09-19T11:17:16.768Z,22.40
2018-09-19T11:19:43.571Z,22.40
2018-09-19T11:22:10.405Z,22.50
2018-09-19T11:24:38.433Z,22.50
2018-09-19T11:27:05.147Z,22.60
2018-09-19T11:29:31.875Z,22.60
2018-09-19T11:31:58.636Z,22.70
2018-09-19T11:34:25.613Z,22.70
2018-09-19T11:36:53.064Z,22.80
2018-09-19T11:39:19.717Z,22.80
2018-09-19T11:41:46.657Z,22.90
2018-09-19T11:44:13.500Z,22.90
2018-09-19T11:46:40.287Z,23.00
2018-09-19T11:49:07.299Z,23.00
2018-09-19T11:51:34.341Z,23.10
2018-09-19T11:54:01.049Z,23.10
2018-09-19T11:56:27.763Z,22.90
2018-09-19T11:58:54.646Z,23.20
2018-09-19T12:01:21.521Z,23.20
2018-09-19T12:03:48.417Z,23.20
2018-09-19T12:06:15.089Z,23.30
2018-09-19T12:08:41.907Z,23.30
2018-09-19T12:11:08.960Z,23.30
2018-09-19T12:13:36.414Z,23.40
2018-09-19T12:16:03.292Z,23.40
2018-09-19T12:18:30.013Z,23.40
2018-09-19T12:20:56.987Z,23.40
2018-09-19T12:23:23.804Z,23.40
2018-09-19T12:25:50.645Z,23.50
2018-09-19T12:28:17.343Z,23.50
2018-09-19T12:30:44.330Z,23.50
2018-09-19T12:33:11.974Z,23.50
2018-09-19T12:35:38.934Z,23.60
2018-09-19T12:38:05.692Z,23.60
2018-09-19T12:40:33.286Z,23.60
2018-09-19T12:43:00.120Z,23.60
2018-09-19T12:45:27.283Z,23.70
2018-09-19T12:47:54.116Z,23.70
2018-09-19T12:50:21.172Z,23.70
2018-09-19T12:52:48.960Z,23.70
2018-09-19T12:55:16.410Z,23.70
2018-09-19T12:57:43.892Z,23.80
2018-09-19T13:00:11.088Z,23.80
2018-09-19T13:02:37.881Z,23.80
2018-09-19T13:05:05.288Z,23.90
2018-09-19T13:07:32.065Z,23.90
2018-09-19T13:09:58.908Z,23.90
2018-09-19T13:12:25.855Z,23.90
2018-09-19T13:14:52.669Z,23.90
2018-09-19T13:17:19.529Z,23.90
2018-09-19T13:19:46.180Z,24.00
2018-09-19T13:22:12.993Z,24.00
2018-09-19T13:24:40.487Z,24.00
2018-09-19T13:27:08.264Z,24.00
2018-09-19T13:29:35.151Z,24.00
2018-09-19T13:32:02.605Z,24.00
2018-09-19T13:34:29.420Z,24.00
2018-09-19T13:36:56.181Z,24.00
2018-09-19T13:39:23.349Z,24.10
2018-09-19T13:41:50.718Z,24.10
2018-09-19T13:44:17.892Z,24.10
2018-09-19T13:46:44.733Z,24.10
2018-09-19T13:49:11.567Z,24.10
2018-09-19T13:51:38.319Z,24.10
2018-09-19T13:54:05.109Z,24.10
2018-09-19T13:56:32.557Z,24.10
2018-09-19T13:58:59.301Z,24.10
2018-09-19T14:01:26.219Z,24.10
2018-09-19T14:03:53.009Z,24.10
2018-09-19T14:06:20.028Z,24.20
2018-09-19T14:08:47.262Z,24.20
2018-09-19T14:11:14.292Z,24.10
2018-09-19T14:13:41.024Z,24.10
2018-09-19T14:16:07.715Z,24.10
2018-09-19T14:18:35.269Z,24.10
2018-09-19T14:21:02.206Z,24.10
2018-09-19T14:23:28.978Z,24.10
2018-09-19T14:25:55.705Z,24.20
2018-09-19T14:28:22.668Z,24.10
2018-09-19T14:30:49.527Z,24.20
2018-09-19T14:33:16.412Z,24.10
2018-09-19T14:35:43.442Z,24.10
2018-09-19T14:38:10.879Z,24.10
2018-09-19T14:40:37.635Z,24.10
2018-09-19T14:43:04.404Z,24.10
2018-09-19T14:45:31.844Z,24.10
2018-09-19T14:47:58.616Z,24.20
2018-09-19T14:50:25.362Z,24.10
2018-09-19T14:52:52.091Z,24.10
2018-09-19T14:55:19.073Z,24.10
2018-09-19T14:57:46.207Z,24.10
2018-09-19T15:00:13.275Z,24.10
2018-09-19T15:02:40.067Z,24.20
2018-09-19T15:05:06.849Z,24.10
2018-09-19T15:07:33.604Z,24.10
2018-09-19T15:10:00.400Z,24.10
2018-09-19T15:12:27.164Z,24.10
2018-09-19T15:14:53.954Z,24.20
2018-09-19T15:17:20.753Z,24.10
2018-09-19T15:19:47.483Z,24.10
2018-09-19T15:22:14.287Z,24.20
2018-09-19T15:24:41.318Z,24.10
2018-09-19T15:27:08.116Z,24.10
2018-09-19T15:29:34.965Z,24.10
2018-09-19T15:32:02.679Z,24.10
2018-09-19T15:34:29.480Z,24.10
2018-09-19T15:36:56.531Z,24.10
2018-09-19T15:39:23.344Z,24.10
2018-09-19T15:41:50.116Z,24.10
2018-09-19T15:44:17.006Z,24.10
2018-09-19T15:46:43.796Z,24.10
2018-09-19T15:49:10.564Z,24.10
2018-09-19T15:51:37.479Z,24.10
2018-09-19T15:54:04.220Z,24.10
2018-09-19T15:56:31.120Z,23.70
2018-09-19T15:58:57.941Z,24.10
2018-09-19T16:01:24.743Z,24.00
2018-09-19T16:03:51.837Z,24.00
2018-09-19T16:06:18.682Z,24.00
2018-09-19T16:08:45.410Z,24.00
2018-09-19T16:11:12.229Z,24.00
2018-09-19T16:13:39.074Z,24.00
2018-09-19T16:16:05.979Z,24.00
2018-09-19T16:18:33.320Z,24.00
2018-09-19T16:21:00.186Z,24.00
2018-09-19T16:23:26.941Z,24.00
2018-09-19T16:25:53.883Z,24.00
2018-09-19T16:28:20.834Z,24.00
2018-09-19T16:30:47.730Z,23.90
2018-09-19T16:33:14.523Z,24.00
2018-09-19T16:35:41.387Z,23.90
2018-09-19T16:38:08.197Z,23.90
2018-09-19T16:40:35.627Z,23.90
2018-09-19T16:43:03.184Z,23.90
2018-09-19T16:45:30.139Z,23.90
2018-09-19T16:47:57.647Z,23.90
2018-09-19T16:50:24.465Z,23.90
2018-09-19T16:52:51.499Z,23.90
2018-09-19T16:55:18.529Z,23.90
2018-09-19T16:57:46.442Z,23.80
2018-09-19T17:00:15.090Z,23.80
2018-09-19T17:02:42.031Z,23.80
2018-09-19T17:05:08.893Z,23.80
2018-09-19T17:07:35.909Z,23.80
2018-09-19T17:10:02.951Z,23.70
2018-09-19T17:12:29.720Z,23.70
2018-09-19T17:14:56.777Z,23.70
2018-09-19T17:17:23.612Z,23.70
2018-09-19T17:19:50.344Z,23.70
2018-09-19T17:22:17.298Z,23.70
2018-09-19T17:24:44.149Z,23.60
2018-09-19T17:27:10.960Z,23.70
2018-09-19T17:29:37.891Z,23.60
2018-09-19T17:32:04.952Z,23.60
2018-09-19T17:34:32.196Z,23.60
2018-09-19T17:36:59.585Z,23.60
2018-09-19T17:39:26.420Z,23.50
2018-09-19T17:41:53.671Z,23.60
2018-09-19T17:44:20.528Z,23.50
2018-09-19T17:46:47.308Z,23.50
2018-09-19T17:49:14.132Z,23.50
2018-09-19T17:51:41.085Z,23.40
2018-09-19T17:54:07.822Z,23.40
2018-09-19T17:56:35.014Z,23.40
2018-09-19T17:59:01.997Z,23.40
2018-09-19T18:01:28.740Z,23.40
2018-09-19T18:03:55.602Z,23.30
2018-09-19T18:06:22.426Z,23.30
2018-09-19T18:11:35.689Z,23.30
2018-09-19T18:14:02.748Z,23.20
2018-09-19T18:16:29.602Z,23.20
2018-09-19T18:18:56.339Z,23.10
2018-09-19T18:21:23.074Z,23.10
2018-09-19T18:23:50.131Z,23.10
2018-09-19T18:26:16.878Z,23.00
2018-09-19T18:28:43.699Z,23.00
2018-09-19T18:31:10.393Z,23.00
2018-09-19T18:33:37.707Z,23.00
2018-09-19T18:36:04.567Z,22.90
2018-09-19T18:38:31.530Z,22.90
2018-09-19T18:40:58.442Z,22.90
2018-09-19T18:43:25.991Z,22.80
2018-09-19T18:45:52.676Z,22.60
2018-09-19T18:48:19.616Z,22.80
2018-09-19T18:50:46.449Z,22.70
2018-09-19T18:53:13.226Z,22.70
2018-09-19T18:55:40.633Z,22.70
2018-09-19T18:58:07.545Z,22.70
2018-09-19T19:00:35.139Z,22.60
2018-09-19T19:03:01.905Z,22.60
2018-09-19T19:05:29.464Z,22.50
2018-09-19T19:07:56.373Z,22.50
2018-09-19T19:10:23.251Z,22.50
2018-09-19T19:12:50.114Z,22.50
2018-09-19T19:15:16.860Z,22.40
2018-09-19T19:17:43.635Z,22.40
2018-09-19T19:20:10.883Z,22.40
2018-09-19T19:22:37.638Z,21.90
2018-09-19T19:25:04.318Z,22.30
2018-09-19T19:27:31.139Z,22.30
2018-09-19T19:29:58.011Z,22.30
2018-09-19T19:32:24.933Z,22.20
2018-09-19T19:34:51.679Z,22.20
2018-09-19T19:37:18.520Z,22.20
2018-09-19T19:39:45.842Z,22.10
2018-09-19T19:42:12.713Z,22.10
2018-09-19T19:44:39.462Z,22.10
2018-09-19T19:47:06.477Z,22.10
2018-09-19T19:49:33.380Z,22.00
2018-09-19T19:52:00.497Z,22.00
2018-09-19T19:54:28.029Z,22.00
2018-09-19T19:56:54.789Z,22.00
2018-09-19T19:59:21.705Z,21.50
2018-09-19T20:01:48.418Z,21.90
2018-09-19T20:04:15.358Z,21.90
2018-09-19T20:06:42.142Z,21.80
2018-09-19T20:09:09.324Z,21.80
2018-09-19T20:11:36.466Z,21.80
2018-09-19T20:14:03.386Z,21.80
2018-09-19T20:16:30.379Z,21.70
2018-09-19T20:18:57.906Z,21.70
2018-09-19T20:21:24.756Z,21.60
2018-09-19T20:23:51.652Z,21.70
2018-09-19T20:26:18.371Z,21.70
2018-09-19T20:28:45.458Z,21.40
2018-09-19T20:31:12.173Z,21.60
2018-09-19T20:33:39.410Z,21.60
2018-09-19T20:36:06.121Z,21.60
2018-09-19T20:38:33.741Z,21.30
2018-09-19T20:41:00.472Z,21.50
2018-09-19T20:43:27.227Z,21.50
2018-09-19T20:45:54.205Z,21.50
2018-09-19T20:48:21.229Z,21.40
2018-09-19T20:50:48.001Z,21.20
2018-09-19T20:53:14.948Z,21.40
2018-09-19T20:55:41.812Z,21.40
2018-09-19T20:58:09.145Z,21.30
2018-09-19T21:00:36.127Z,21.30
2018-09-19T21:03:03.063Z,21.30
2018-09-19T21:05:30.968Z,21.30
2018-09-19T21:07:57.658Z,21.20
2018-09-19T21:10:24.432Z,21.20
2018-09-19T21:12:51.319Z,21.20
2018-09-19T21:15:18.121Z,21.20
2018-09-19T21:17:44.995Z,21.10
2018-09-19T21:20:11.734Z,21.10
2018-09-19T21:22:39.496Z,21.10
2018-09-19T21:25:06.174Z,21.10
2018-09-19T21:27:32.937Z,21.10
2018-09-19T21:29:59.599Z,21.00
2018-09-19T21:32:26.302Z,21.00
2018-09-19T21:34:53.495Z,21.00
2018-09-19T21:37:20.400Z,21.00
2018-09-19T21:39:47.216Z,20.90
2018-09-19T21:42:14.037Z,20.90
2018-09-19T21:44:40.754Z,20.90
2018-09-19T21:47:07.636Z,20.90
2018-09-19T21:49:34.961Z,20.80
2018-09-19T21:52:01.820Z,20.90
2018-09-19T21:54:28.640Z,20.80
2018-09-19T21:56:56.300Z,20.80
2018-09-19T21:59:23.053Z,20.80
2018-09-19T22:01:55.287Z,20.80
2018-09-19T22:04:22.317Z,20.70
2018-09-19T22:06:49.044Z,20.70
2018-09-19T22:09:15.996Z,20.70
2018-09-19T22:11:42.734Z,20.70
2018-09-19T22:14:09.674Z,20.60
2018-09-19T22:16:36.552Z,20.60
2018-09-19T22:19:03.375Z,20.60
2018-09-19T22:21:30.097Z,20.60
2018-09-19T22:23:57.167Z,20.50
2018-09-19T22:26:24.041Z,20.50
2018-09-19T22:28:50.821Z,20.50
2018-09-19T22:31:17.603Z,20.50
2018-09-19T22:33:44.419Z,20.40
2018-09-19T22:36:11.166Z,20.40
2018-09-19T22:38:38.033Z,20.40
2018-09-19T22:41:04.875Z,20.40
2018-09-19T22:43:31.712Z,20.40
2018-09-19T22:45:58.462Z,20.30
2018-09-19T22:48:25.151Z,20.30
2018-09-19T22:50:52.437Z,20.30
2018-09-19T22:53:19.127Z,20.30
2018-09-19T22:55:45.949Z,20.20
2018-09-19T22:58:12.709Z,20.20
2018-09-19T23:00:39.641Z,20.20
2018-09-19T23:03:06.291Z,20.20
2018-09-19T23:05:33.203Z,20.10
2018-09-19T23:08:00.064Z,20.10
2018-09-19T23:10:26.903Z,20.10
2018-09-19T23:12:53.618Z,20.00
2018-09-19T23:15:20.389Z,20.00
2018-09-19T23:17:47.248Z,20.00
2018-09-19T23:20:14.048Z,20.00
2018-09-19T23:22:40.799Z,20.00
2018-09-19T23:25:07.615Z,20.00
2018-09-19T23:27:34.464Z,19.70
2018-09-19T23:30:01.139Z,19.90
2018-09-19T23:32:27.988Z,19.90
2018-09-19T23:34:54.762Z,19.90
2018-09-19T23:37:21.588Z,19.80
2018-09-19T23:39:48.279Z,19.80
2018-09-19T23:42:14.983Z,19.80
2018-09-19T23:44:41.714Z,19.80
2018-09-19T23:47:08.508Z,19.70
2018-09-19T23:49:35.239Z,19.70
2018-09-19T23:52:01.987Z,19.70
2018-09-19T23:54:28.734Z,19.70
2018-09-19T23:56:55.723Z,19.70
2018-09-19T23:59:22.541Z,19.60
